sensor_id;sensor_type;location;lat;lon;timestamp;pressure;altitude;pressure_sealevel;temperature;humidity
67738;BME280;54534;43.612;1.572;2023-03-14T00:02:16;98681.97;;;19.27;53.05
67738;BME280;54534;43.612;1.572;2023-03-14T00:04:42;98671.31;;;19.27;52.91
67738;BME280;54534;43.612;1.572;2023-03-14T00:07:09;98666.94;;;19.26;52.69
67738;BME280;54534;43.612;1.572;2023-03-14T00:09:35;98682.09;;;19.25;52.91
67738;BME280;54534;43.612;1.572;2023-03-14T00:12:00;98679.59;;;19.23;52.72
67738;BME280;54534;43.612;1.572;2023-03-14T00:14:28;98684.06;;;19.23;52.83
67738;BME280;54534;43.612;1.572;2023-03-14T00:16:54;98677.88;;;19.22;52.50
67738;BME280;54534;43.612;1.572;2023-03-14T00:19:19;98665.56;;;19.21;52.60
67738;BME280;54534;43.612;1.572;2023-03-14T00:21:45;98671.88;;;19.20;52.71
67738;BME280;54534;43.612;1.572;2023-03-14T00:24:10;98669.19;;;19.20;52.54
67738;BME280;54534;43.612;1.572;2023-03-14T00:26:35;98672.00;;;19.19;52.55
67738;BME280;54534;43.612;1.572;2023-03-14T00:29:01;98664.97;;;19.18;52.55
67738;BME280;54534;43.612;1.572;2023-03-14T00:31:26;98673.91;;;19.17;52.67
67738;BME280;54534;43.612;1.572;2023-03-14T00:33:52;98670.44;;;19.16;52.59
67738;BME280;54534;43.612;1.572;2023-03-14T00:36:18;98676.75;;;19.15;52.48
67738;BME280;54534;43.612;1.572;2023-03-14T00:38:47;98676.75;;;19.15;52.50
67738;BME280;54534;43.612;1.572;2023-03-14T00:41:18;98675.03;;;19.14;52.55
67738;BME280;54534;43.612;1.572;2023-03-14T00:43:43;98670.72;;;19.13;52.52
67738;BME280;54534;43.612;1.572;2023-03-14T00:46:11;98675.31;;;19.11;52.38
67738;BME280;54534;43.612;1.572;2023-03-14T00:48:37;98670.00;;;19.11;52.48
67738;BME280;54534;43.612;1.572;2023-03-14T00:51:03;98664.81;;;19.09;52.09
67738;BME280;54534;43.612;1.572;2023-03-14T00:53:29;98657.78;;;19.08;52.42
67738;BME280;54534;43.612;1.572;2023-03-14T00:55:55;98667.47;;;19.09;52.44
67738;BME280;54534;43.612;1.572;2023-03-14T00:58:20;98671.13;;;19.08;52.35
67738;BME280;54534;43.612;1.572;2023-03-14T01:00:46;98671.28;;;19.07;52.05
67738;BME280;54534;43.612;1.572;2023-03-14T01:03:12;98668.59;;;19.07;52.20
67738;BME280;54534;43.612;1.572;2023-03-14T01:05:38;98669.56;;;19.06;52.08
67738;BME280;54534;43.612;1.572;2023-03-14T01:08:05;98665.25;;;19.05;52.31
67738;BME280;54534;43.612;1.572;2023-03-14T01:10:32;98668.75;;;19.05;52.42
67738;BME280;54534;43.612;1.572;2023-03-14T01:12:57;98675.06;;;19.04;52.27
67738;BME280;54534;43.612;1.572;2023-03-14T01:15:23;98670.69;;;19.03;52.37
67738;BME280;54534;43.612;1.572;2023-03-14T01:17:49;98661.03;;;19.02;52.29
67738;BME280;54534;43.612;1.572;2023-03-14T01:20:15;98670.84;;;19.01;52.20
67738;BME280;54534;43.612;1.572;2023-03-14T01:22:41;98655.81;;;19.00;52.19
67738;BME280;54534;43.612;1.572;2023-03-14T01:25:12;98653.16;;;19.00;52.03
67738;BME280;54534;43.612;1.572;2023-03-14T01:27:38;98663.97;;;18.99;52.29
67738;BME280;54534;43.612;1.572;2023-03-14T01:30:04;98658.66;;;18.99;52.44
67738;BME280;54534;43.612;1.572;2023-03-14T01:32:30;98653.47;;;18.97;52.16
67738;BME280;54534;43.612;1.572;2023-03-14T01:34:55;98651.63;;;18.98;52.24
67738;BME280;54534;43.612;1.572;2023-03-14T01:37:21;98659.75;;;18.96;52.15
67738;BME280;54534;43.612;1.572;2023-03-14T01:39:47;98650.94;;;18.96;52.10
67738;BME280;54534;43.612;1.572;2023-03-14T01:42:13;98651.94;;;18.95;52.05
67738;BME280;54534;43.612;1.572;2023-03-14T01:44:50;98647.56;;;18.94;52.33
67738;BME280;54534;43.612;1.572;2023-03-14T01:47:16;98657.38;;;18.93;52.20
67738;BME280;54534;43.612;1.572;2023-03-14T01:49:42;98647.72;;;18.92;52.16
67738;BME280;54534;43.612;1.572;2023-03-14T01:52:12;98645.06;;;18.92;52.25
67738;BME280;54534;43.612;1.572;2023-03-14T01:54:42;98665.53;;;18.92;52.35
67738;BME280;54534;43.612;1.572;2023-03-14T01:59:38;98635.66;;;18.88;52.20
67738;BME280;54534;43.612;1.572;2023-03-14T02:02:06;98647.00;;;18.90;52.23
67738;BME280;54534;43.612;1.572;2023-03-14T02:04:35;98647.16;;;18.88;52.24
67738;BME280;54534;43.612;1.572;2023-03-14T02:07:12;98659.63;;;18.88;52.47
67738;BME280;54534;43.612;1.572;2023-03-14T02:09:40;98627.81;;;18.86;52.29
67738;BME280;54534;43.612;1.572;2023-03-14T02:12:08;98641.13;;;18.86;52.51
67738;BME280;54534;43.612;1.572;2023-03-14T02:14:36;98623.44;;;18.85;52.63
67738;BME280;54534;43.612;1.572;2023-03-14T02:17:04;98627.94;;;18.85;52.65
67738;BME280;54534;43.612;1.572;2023-03-14T02:22:20;98630.91;;;18.82;52.36
67738;BME280;54534;43.612;1.572;2023-03-14T02:27:18;98629.91;;;18.83;52.55
67738;BME280;54534;43.612;1.572;2023-03-14T02:29:57;98628.22;;;18.82;52.02
67738;BME280;54534;43.612;1.572;2023-03-14T02:32:25;98623.88;;;18.81;52.60
67738;BME280;54534;43.612;1.572;2023-03-14T02:34:55;98620.38;;;18.80;52.24
67738;BME280;54534;43.612;1.572;2023-03-14T02:37:24;98628.50;;;18.78;52.43
67738;BME280;54534;43.612;1.572;2023-03-14T02:39:52;98627.50;;;18.79;52.42
67738;BME280;54534;43.612;1.572;2023-03-14T02:42:18;98618.69;;;18.79;52.12
67738;BME280;54534;43.612;1.572;2023-03-14T02:44:50;98625.84;;;18.78;52.32
67738;BME280;54534;43.612;1.572;2023-03-14T02:47:16;98618.13;;;18.75;52.16
67738;BME280;54534;43.612;1.572;2023-03-14T02:49:41;98616.31;;;18.76;52.45
67738;BME280;54534;43.612;1.572;2023-03-14T02:52:07;98627.09;;;18.74;52.35
67738;BME280;54534;43.612;1.572;2023-03-14T02:54:32;98622.59;;;18.75;52.18
67738;BME280;54534;43.612;1.572;2023-03-14T02:56:58;98644.88;;;18.74;51.97
67738;BME280;54534;43.612;1.572;2023-03-14T02:59:23;98635.06;;;18.74;52.07
67738;BME280;54534;43.612;1.572;2023-03-14T03:01:49;98640.41;;;18.74;51.94
67738;BME280;54534;43.612;1.572;2023-03-14T03:04:14;98650.34;;;18.72;52.38
67738;BME280;54534;43.612;1.572;2023-03-14T03:06:39;98654.84;;;18.72;52.04
67738;BME280;54534;43.612;1.572;2023-03-14T03:09:05;98638.84;;;18.72;52.21
67738;BME280;54534;43.612;1.572;2023-03-14T03:21:29;98634.09;;;18.65;52.19
67738;BME280;54534;43.612;1.572;2023-03-14T03:23:55;98642.09;;;18.65;51.78
67738;BME280;54534;43.612;1.572;2023-03-14T03:26:20;98638.59;;;18.65;52.04
67738;BME280;54534;43.612;1.572;2023-03-14T03:28:46;98659.88;;;18.65;51.94
67738;BME280;54534;43.612;1.572;2023-03-14T03:31:11;98650.06;;;18.65;51.97
67738;BME280;54534;43.612;1.572;2023-03-14T03:33:38;98647.53;;;18.64;52.05
67738;BME280;54534;43.612;1.572;2023-03-14T03:36:03;98659.88;;;18.65;52.08
67738;BME280;54534;43.612;1.572;2023-03-14T03:38:29;98658.19;;;18.64;52.09
67738;BME280;54534;43.612;1.572;2023-03-14T03:40:54;98665.31;;;18.63;51.75
67738;BME280;54534;43.612;1.572;2023-03-14T03:43:19;98661.84;;;18.63;52.09
67738;BME280;54534;43.612;1.572;2023-03-14T03:45:45;98669.00;;;18.62;51.91
67738;BME280;54534;43.612;1.572;2023-03-14T03:48:10;98670.81;;;18.62;52.14
67738;BME280;54534;43.612;1.572;2023-03-14T03:50:36;98662.81;;;18.62;52.08
67738;BME280;54534;43.612;1.572;2023-03-14T03:53:01;98673.63;;;18.60;51.45
67738;BME280;54534;43.612;1.572;2023-03-14T03:55:27;98672.63;;;18.61;51.54
67738;BME280;54534;43.612;1.572;2023-03-14T03:57:53;98687.75;;;18.61;51.81
67738;BME280;54534;43.612;1.572;2023-03-14T04:00:19;98687.88;;;18.59;51.72
67738;BME280;54534;43.612;1.572;2023-03-14T04:02:44;98673.72;;;18.59;51.46
67738;BME280;54534;43.612;1.572;2023-03-14T04:05:10;98679.91;;;18.59;51.53
67738;BME280;54534;43.612;1.572;2023-03-14T04:07:35;98694.06;;;18.60;51.52
67738;BME280;54534;43.612;1.572;2023-03-14T04:10:00;98690.69;;;18.58;51.68
67738;BME280;54534;43.612;1.572;2023-03-14T04:12:26;98692.50;;;18.57;51.47
67738;BME280;54534;43.612;1.572;2023-03-14T04:14:51;98699.66;;;18.56;51.60
67738;BME280;54534;43.612;1.572;2023-03-14T04:17:17;98704.13;;;18.56;51.63
67738;BME280;54534;43.612;1.572;2023-03-14T04:19:42;98706.78;;;18.56;51.40
67738;BME280;54534;43.612;1.572;2023-03-14T04:22:08;98705.13;;;18.55;51.39
67738;BME280;54534;43.612;1.572;2023-03-14T04:24:34;98714.94;;;18.54;51.59
67738;BME280;54534;43.612;1.572;2023-03-14T04:26:59;98711.41;;;18.54;51.55
67738;BME280;54534;43.612;1.572;2023-03-14T04:29:25;98715.91;;;18.53;51.34
67738;BME280;54534;43.612;1.572;2023-03-14T04:31:50;98710.56;;;18.53;51.49
67738;BME280;54534;43.612;1.572;2023-03-14T04:34:16;98708.06;;;18.52;51.55
67738;BME280;54534;43.612;1.572;2023-03-14T04:36:41;98706.25;;;18.52;51.56
67738;BME280;54534;43.612;1.572;2023-03-14T04:39:06;98710.72;;;18.52;51.39
67738;BME280;54534;43.612;1.572;2023-03-14T04:41:32;98732.00;;;18.52;51.19
67738;BME280;54534;43.612;1.572;2023-03-14T04:43:57;98731.16;;;18.51;51.18
67738;BME280;54534;43.612;1.572;2023-03-14T04:46:23;98748.09;;;18.50;51.24
67738;BME280;54534;43.612;1.572;2023-03-14T04:48:48;98735.78;;;18.49;50.90
67738;BME280;54534;43.612;1.572;2023-03-14T04:51:14;98740.25;;;18.49;50.90
67738;BME280;54534;43.612;1.572;2023-03-14T04:53:39;98733.25;;;18.48;51.04
67738;BME280;54534;43.612;1.572;2023-03-14T04:56:05;98735.91;;;18.48;51.31
67738;BME280;54534;43.612;1.572;2023-03-14T04:58:31;98742.94;;;18.49;51.02
67738;BME280;54534;43.612;1.572;2023-03-14T05:01:01;98758.06;;;18.48;51.13
67738;BME280;54534;43.612;1.572;2023-03-14T05:03:27;98753.72;;;18.47;50.80
67738;BME280;54534;43.612;1.572;2023-03-14T05:05:52;98768.84;;;18.47;50.96
67738;BME280;54534;43.612;1.572;2023-03-14T05:08:18;98774.16;;;18.47;51.44
67738;BME280;54534;43.612;1.572;2023-03-14T05:10:43;98771.50;;;18.47;50.83
67738;BME280;54534;43.612;1.572;2023-03-14T05:13:08;98765.47;;;18.44;51.04
67738;BME280;54534;43.612;1.572;2023-03-14T05:15:34;98770.66;;;18.46;50.89
67738;BME280;54534;43.612;1.572;2023-03-14T05:17:59;98769.97;;;18.44;51.07
67738;BME280;54534;43.612;1.572;2023-03-14T05:20:25;98777.94;;;18.44;50.72
67738;BME280;54534;43.612;1.572;2023-03-14T05:22:50;98782.41;;;18.43;50.83
67738;BME280;54534;43.612;1.572;2023-03-14T05:25:16;98785.94;;;18.44;51.27
67738;BME280;54534;43.612;1.572;2023-03-14T05:27:41;98775.41;;;18.42;50.72
67738;BME280;54534;43.612;1.572;2023-03-14T05:30:10;98772.63;;;18.44;50.97
67738;BME280;54534;43.612;1.572;2023-03-14T05:32:35;98767.41;;;18.42;50.76
67738;BME280;54534;43.612;1.572;2023-03-14T05:35:01;98779.06;;;18.41;51.22
67738;BME280;54534;43.612;1.572;2023-03-14T05:37:26;98768.41;;;18.41;51.08
67738;BME280;54534;43.612;1.572;2023-03-14T05:39:52;98780.88;;;18.41;50.60
67738;BME280;54534;43.612;1.572;2023-03-14T05:42:17;98765.84;;;18.40;50.92
67738;BME280;54534;43.612;1.572;2023-03-14T05:44:43;98780.88;;;18.41;50.85
67738;BME280;54534;43.612;1.572;2023-03-14T05:47:08;98792.47;;;18.40;50.95
67738;BME280;54534;43.612;1.572;2023-03-14T05:49:34;98797.81;;;18.40;50.95
67738;BME280;54534;43.612;1.572;2023-03-14T05:51:59;98807.63;;;18.39;51.13
67738;BME280;54534;43.612;1.572;2023-03-14T05:54:25;98828.94;;;18.39;50.91
67738;BME280;54534;43.612;1.572;2023-03-14T05:56:50;98825.41;;;18.39;50.79
67738;BME280;54534;43.612;1.572;2023-03-14T05:59:16;98820.94;;;18.39;51.23
67738;BME280;54534;43.612;1.572;2023-03-14T06:01:41;98827.22;;;18.38;50.89
67738;BME280;54534;43.612;1.572;2023-03-14T06:04:07;98829.03;;;18.38;51.06
67738;BME280;54534;43.612;1.572;2023-03-14T06:06:32;98839.69;;;18.38;51.02
67738;BME280;54534;43.612;1.572;2023-03-14T06:08:57;98815.72;;;18.38;51.05
67738;BME280;54534;43.612;1.572;2023-03-14T06:11:23;98852.03;;;18.39;51.13
67738;BME280;54534;43.612;1.572;2023-03-14T06:13:48;98834.34;;;18.38;51.16
67738;BME280;54534;43.612;1.572;2023-03-14T06:16:13;98849.47;;;18.37;51.23
67738;BME280;54534;43.612;1.572;2023-03-14T06:18:39;98822.00;;;18.37;50.88
67738;BME280;54534;43.612;1.572;2023-03-14T06:21:05;98845.97;;;18.37;51.05
67738;BME280;54534;43.612;1.572;2023-03-14T06:23:30;98854.81;;;18.37;51.33
67738;BME280;54534;43.612;1.572;2023-03-14T06:25:57;98853.13;;;18.36;51.16
67738;BME280;54534;43.612;1.572;2023-03-14T06:28:22;98858.47;;;18.36;50.84
67738;BME280;54534;43.612;1.572;2023-03-14T06:30:47;98876.25;;;18.36;50.89
67738;BME280;54534;43.612;1.572;2023-03-14T06:33:13;98875.25;;;18.37;51.29
67738;BME280;54534;43.612;1.572;2023-03-14T06:35:38;98893.16;;;18.34;50.89
67738;BME280;54534;43.612;1.572;2023-03-14T06:38:04;98888.69;;;18.35;50.91
67738;BME280;54534;43.612;1.572;2023-03-14T06:40:29;98887.00;;;18.34;51.17
67738;BME280;54534;43.612;1.572;2023-03-14T06:42:55;98896.69;;;18.35;51.03
67738;BME280;54534;43.612;1.572;2023-03-14T06:45:20;98899.47;;;18.33;50.79
67738;BME280;54534;43.612;1.572;2023-03-14T06:47:46;98887.13;;;18.32;51.15
67738;BME280;54534;43.612;1.572;2023-03-14T06:50:11;98892.47;;;18.32;51.02
67738;BME280;54534;43.612;1.572;2023-03-14T06:52:37;98911.94;;;18.33;50.93
67738;BME280;54534;43.612;1.572;2023-03-14T06:55:06;98904.91;;;18.32;51.03
67738;BME280;54534;43.612;1.572;2023-03-14T06:57:32;98911.09;;;18.32;50.68
67738;BME280;54534;43.612;1.572;2023-03-14T06:59:57;98923.56;;;18.32;50.64
67738;BME280;54534;43.612;1.572;2023-03-14T07:02:23;98933.25;;;18.33;50.88
67738;BME280;54534;43.612;1.572;2023-03-14T07:04:48;98926.22;;;18.32;50.57
67738;BME280;54534;43.612;1.572;2023-03-14T07:07:14;98928.03;;;18.31;50.95
67738;BME280;54534;43.612;1.572;2023-03-14T07:09:39;98930.69;;;18.31;50.66
67738;BME280;54534;43.612;1.572;2023-03-14T07:12:05;98935.19;;;18.31;50.63
67738;BME280;54534;43.612;1.572;2023-03-14T07:14:30;98939.66;;;18.30;50.95
67738;BME280;54534;43.612;1.572;2023-03-14T07:16:56;98942.31;;;18.30;50.80
67738;BME280;54534;43.612;1.572;2023-03-14T07:19:21;98947.66;;;18.30;50.95
67738;BME280;54534;43.612;1.572;2023-03-14T07:21:47;98953.06;;;18.29;50.71
67738;BME280;54534;43.612;1.572;2023-03-14T07:24:12;98961.91;;;18.29;50.90
67738;BME280;54534;43.612;1.572;2023-03-14T07:26:38;98959.50;;;18.26;50.90
67738;BME280;54534;43.612;1.572;2023-03-14T07:29:03;98963.88;;;18.27;50.58
67738;BME280;54534;43.612;1.572;2023-03-14T07:31:29;98968.34;;;18.27;50.51
67738;BME280;54534;43.612;1.572;2023-03-14T07:33:55;98967.47;;;18.26;50.78
67738;BME280;54534;43.612;1.572;2023-03-14T07:36:21;98971.00;;;18.27;50.54
67738;BME280;54534;43.612;1.572;2023-03-14T07:38:46;98981.63;;;18.27;50.57
67738;BME280;54534;43.612;1.572;2023-03-14T07:41:12;98988.78;;;18.26;50.48
67738;BME280;54534;43.612;1.572;2023-03-14T07:43:38;98992.28;;;18.27;50.55
67738;BME280;54534;43.612;1.572;2023-03-14T07:46:04;99006.69;;;18.24;50.40
67738;BME280;54534;43.612;1.572;2023-03-14T07:48:29;99003.19;;;18.23;50.67
67738;BME280;54534;43.612;1.572;2023-03-14T07:50:55;99008.41;;;18.25;50.34
67738;BME280;54534;43.612;1.572;2023-03-14T07:53:22;99007.69;;;18.23;50.65
67738;BME280;54534;43.612;1.572;2023-03-14T07:55:50;99014.69;;;18.24;50.54
67738;BME280;54534;43.612;1.572;2023-03-14T07:58:16;99010.34;;;18.23;50.35
67738;BME280;54534;43.612;1.572;2023-03-14T08:00:41;99018.31;;;18.23;50.46
67738;BME280;54534;43.612;1.572;2023-03-14T08:03:06;99013.97;;;18.22;50.54
67738;BME280;54534;43.612;1.572;2023-03-14T08:05:36;99011.31;;;18.22;50.61
67738;BME280;54534;43.612;1.572;2023-03-14T08:08:02;99021.19;;;18.20;50.51
67738;BME280;54534;43.612;1.572;2023-03-14T08:10:28;99030.88;;;18.21;50.37
67738;BME280;54534;43.612;1.572;2023-03-14T08:12:55;99043.38;;;18.20;50.52
67738;BME280;54534;43.612;1.572;2023-03-14T08:15:21;99039.84;;;18.20;50.23
67738;BME280;54534;43.612;1.572;2023-03-14T08:17:47;99042.59;;;18.18;50.10
67738;BME280;54534;43.612;1.572;2023-03-14T08:20:24;99052.28;;;18.19;50.37
67738;BME280;54534;43.612;1.572;2023-03-14T08:22:50;99054.94;;;18.19;50.04
67738;BME280;54534;43.612;1.572;2023-03-14T08:25:16;99055.91;;;18.18;50.17
67738;BME280;54534;43.612;1.572;2023-03-14T08:27:42;99057.75;;;18.18;50.10
67738;BME280;54534;43.612;1.572;2023-03-14T08:30:11;99055.91;;;18.18;50.34
67738;BME280;54534;43.612;1.572;2023-03-14T08:32:37;99065.84;;;18.16;50.24
67738;BME280;54534;43.612;1.572;2023-03-14T08:35:03;99078.19;;;18.17;50.01
67738;BME280;54534;43.612;1.572;2023-03-14T08:37:31;99076.47;;;18.16;49.97
67738;BME280;54534;43.612;1.572;2023-03-14T08:39:57;99093.28;;;18.17;49.97
67738;BME280;54534;43.612;1.572;2023-03-14T08:42:22;99093.28;;;18.17;49.94
67738;BME280;54534;43.612;1.572;2023-03-14T08:44:48;99097.75;;;18.16;50.25
67738;BME280;54534;43.612;1.572;2023-03-14T08:47:13;99094.25;;;18.16;50.06
67738;BME280;54534;43.612;1.572;2023-03-14T08:49:39;99089.91;;;18.15;49.96
67738;BME280;54534;43.612;1.572;2023-03-14T08:52:04;99095.25;;;18.15;50.02
67738;BME280;54534;43.612;1.572;2023-03-14T08:54:30;99094.38;;;18.14;50.19
67738;BME280;54534;43.612;1.572;2023-03-14T08:56:57;99095.25;;;18.15;49.92
67738;BME280;54534;43.612;1.572;2023-03-14T08:59:22;99094.38;;;18.14;49.85
67738;BME280;54534;43.612;1.572;2023-03-14T09:01:48;99096.19;;;18.14;50.19
67738;BME280;54534;43.612;1.572;2023-03-14T09:04:13;99097.19;;;18.12;50.17
67738;BME280;54534;43.612;1.572;2023-03-14T09:06:39;99097.19;;;18.12;50.04
67738;BME280;54534;43.612;1.572;2023-03-14T09:09:04;99105.16;;;18.12;49.97
67738;BME280;54534;43.612;1.572;2023-03-14T09:11:30;99110.50;;;18.12;49.98
67738;BME280;54534;43.612;1.572;2023-03-14T09:13:56;99102.50;;;18.12;49.81
67738;BME280;54534;43.612;1.572;2023-03-14T09:16:21;99132.72;;;18.11;49.64
67738;BME280;54534;43.612;1.572;2023-03-14T09:18:48;99133.69;;;18.10;50.16
67738;BME280;54534;43.612;1.572;2023-03-14T09:21:13;99164.66;;;18.11;50.14
67738;BME280;54534;43.612;1.572;2023-03-14T09:23:39;99181.59;;;18.10;50.10
67738;BME280;54534;43.612;1.572;2023-03-14T09:26:05;99167.47;;;18.10;50.10
67738;BME280;54534;43.612;1.572;2023-03-14T09:28:31;99181.59;;;18.10;50.13
67738;BME280;54534;43.612;1.572;2023-03-14T09:30:56;99186.09;;;18.10;50.14
67738;BME280;54534;43.612;1.572;2023-03-14T09:33:23;99191.41;;;18.10;49.85
67738;BME280;54534;43.612;1.572;2023-03-14T09:35:49;99185.34;;;18.08;50.01
67738;BME280;54534;43.612;1.572;2023-03-14T09:38:15;99181.72;;;18.09;50.04
67738;BME280;54534;43.612;1.572;2023-03-14T09:40:41;99180.00;;;18.08;49.58
67738;BME280;54534;43.612;1.572;2023-03-14T09:43:14;99184.50;;;18.07;49.88
67738;BME280;54534;43.612;1.572;2023-03-14T09:45:41;99180.00;;;18.08;50.01
67738;BME280;54534;43.612;1.572;2023-03-14T09:48:20;99181.94;;;18.06;49.74
67738;BME280;54534;43.612;1.572;2023-03-14T09:50:51;99180.16;;;18.06;49.63
67738;BME280;54534;43.612;1.572;2023-03-14T09:53:20;99185.47;;;18.06;49.48
67738;BME280;54534;43.612;1.572;2023-03-14T09:55:49;99185.47;;;18.06;49.57
67738;BME280;54534;43.612;1.572;2023-03-14T09:58:22;99176.63;;;18.06;49.48
67738;BME280;54534;43.612;1.572;2023-03-14T10:00:49;99183.75;;;18.05;49.51
67738;BME280;54534;43.612;1.572;2023-03-14T10:03:22;99178.44;;;18.05;49.49
67738;BME280;54534;43.612;1.572;2023-03-14T10:05:49;99173.25;;;18.04;49.62
67738;BME280;54534;43.612;1.572;2023-03-14T10:08:15;99176.75;;;18.04;49.38
67738;BME280;54534;43.612;1.572;2023-03-14T10:10:40;99172.41;;;18.03;49.40
67738;BME280;54534;43.612;1.572;2023-03-14T10:13:21;99169.75;;;18.03;49.50
67738;BME280;54534;43.612;1.572;2023-03-14T10:16:04;99167.94;;;18.04;49.46
67738;BME280;54534;43.612;1.572;2023-03-14T10:18:31;99176.03;;;18.02;49.43
67738;BME280;54534;43.612;1.572;2023-03-14T10:23:28;99183.16;;;18.01;49.54
67738;BME280;54534;43.612;1.572;2023-03-14T10:26:06;99192.00;;;18.02;49.47
67738;BME280;54534;43.612;1.572;2023-03-14T10:28:38;99193.81;;;18.01;49.40
67738;BME280;54534;43.612;1.572;2023-03-14T10:31:04;99194.78;;;18.00;49.42
67738;BME280;54534;43.612;1.572;2023-03-14T10:33:31;99196.47;;;18.01;49.66
67738;BME280;54534;43.612;1.572;2023-03-14T10:38:26;99203.59;;;18.01;49.41
67738;BME280;54534;43.612;1.572;2023-03-14T10:40:53;99199.25;;;18.00;49.54
67738;BME280;54534;43.612;1.572;2023-03-14T10:43:23;99201.91;;;18.00;49.41
67738;BME280;54534;43.612;1.572;2023-03-14T10:46:14;99201.03;;;17.99;49.69
67738;BME280;54534;43.612;1.572;2023-03-14T10:48:41;99211.69;;;17.99;49.76
67738;BME280;54534;43.612;1.572;2023-03-14T10:51:11;99208.19;;;17.99;49.36
67738;BME280;54534;43.612;1.572;2023-03-14T10:56:14;99210.88;;;17.99;49.27
67738;BME280;54534;43.612;1.572;2023-03-14T10:58:42;99234.81;;;17.99;49.42
67738;BME280;54534;43.612;1.572;2023-03-14T11:01:26;99210.00;;;17.98;49.53
67738;BME280;54534;43.612;1.572;2023-03-14T11:04:01;99215.34;;;17.98;49.34
67738;BME280;54534;43.612;1.572;2023-03-14T11:06:39;99213.63;;;17.97;49.56
67738;BME280;54534;43.612;1.572;2023-03-14T11:09:25;99210.97;;;17.97;49.60
67738;BME280;54534;43.612;1.572;2023-03-14T11:12:44;99222.59;;;17.96;49.68
67738;BME280;54534;43.612;1.572;2023-03-14T11:14:54;99220.75;;;17.97;49.21
67738;BME280;54534;43.612;1.572;2023-03-14T11:17:30;99228.72;;;17.97;49.29
67738;BME280;54534;43.612;1.572;2023-03-14T11:20:22;99220.88;;;17.95;49.65
67738;BME280;54534;43.612;1.572;2023-03-14T11:30:55;99231.66;;;17.94;49.08
67738;BME280;54534;43.612;1.572;2023-03-14T11:33:44;99237.94;;;17.93;49.45
67738;BME280;54534;43.612;1.572;2023-03-14T11:36:16;99242.41;;;17.92;49.16
67738;BME280;54534;43.612;1.572;2023-03-14T11:38:50;99235.28;;;17.93;49.60
67738;BME280;54534;43.612;1.572;2023-03-14T11:41:40;99235.28;;;17.93;49.53
67738;BME280;54534;43.612;1.572;2023-03-14T11:44:30;99232.59;;;17.93;49.01
67738;BME280;54534;43.612;1.572;2023-03-14T11:47:02;99226.44;;;17.92;49.30
67738;BME280;54534;43.612;1.572;2023-03-14T11:49:45;99219.31;;;17.93;49.04
67738;BME280;54534;43.612;1.572;2023-03-14T11:55:05;99238.06;;;17.91;49.41
67738;BME280;54534;43.612;1.572;2023-03-14T11:57:32;99216.88;;;17.89;49.52
67738;BME280;54534;43.612;1.572;2023-03-14T12:00:21;99222.91;;;17.92;49.01
67738;BME280;54534;43.612;1.572;2023-03-14T12:08:29;99223.19;;;17.88;49.29
67738;BME280;54534;43.612;1.572;2023-03-14T12:11:06;99220.53;;;17.88;49.06
67738;BME280;54534;43.612;1.572;2023-03-14T12:13:38;99217.88;;;17.88;49.06
67738;BME280;54534;43.612;1.572;2023-03-14T12:18:50;99212.53;;;17.88;48.89
67738;BME280;54534;43.612;1.572;2023-03-14T12:21:16;99214.34;;;17.88;49.35
67738;BME280;54534;43.612;1.572;2023-03-14T12:28:36;99204.56;;;17.88;49.19
67738;BME280;54534;43.612;1.572;2023-03-14T12:41:48;99193.19;;;17.86;49.20
67738;BME280;54534;43.612;1.572;2023-03-14T12:46:57;99183.38;;;17.87;49.02
67738;BME280;54534;43.612;1.572;2023-03-14T12:49:29;99183.53;;;17.85;48.99
67738;BME280;54534;43.612;1.572;2023-03-14T12:51:59;99176.41;;;17.86;49.13
67738;BME280;54534;43.612;1.572;2023-03-14T13:02:37;99172.16;;;17.83;49.19
67738;BME280;54534;43.612;1.572;2023-03-14T13:05:10;99161.63;;;17.82;49.43
67738;BME280;54534;43.612;1.572;2023-03-14T13:15:18;99154.50;;;17.82;49.38
67738;BME280;54534;43.612;1.572;2023-03-14T13:17:46;99151.84;;;17.82;49.01
67738;BME280;54534;43.612;1.572;2023-03-14T13:20:18;99149.03;;;17.84;48.99
67738;BME280;54534;43.612;1.572;2023-03-14T13:22:48;99138.53;;;17.82;48.91
67738;BME280;54534;43.612;1.572;2023-03-14T13:25:14;99141.19;;;17.82;49.21
67738;BME280;54534;43.612;1.572;2023-03-14T13:27:42;99135.88;;;17.82;49.16
67738;BME280;54534;43.612;1.572;2023-03-14T13:30:28;99126.09;;;17.83;48.82
67738;BME280;54534;43.612;1.572;2023-03-14T13:32:54;99122.59;;;17.82;49.08
67738;BME280;54534;43.612;1.572;2023-03-14T13:35:28;99143.00;;;17.82;49.06
67738;BME280;54534;43.612;1.572;2023-03-14T13:37:57;99138.53;;;17.82;49.31
67738;BME280;54534;43.612;1.572;2023-03-14T13:40:31;99146.53;;;17.82;49.35
67738;BME280;54534;43.612;1.572;2023-03-14T13:43:46;99146.53;;;17.82;49.47
67738;BME280;54534;43.612;1.572;2023-03-14T13:45:51;99137.69;;;17.82;49.02
67738;BME280;54534;43.612;1.572;2023-03-14T13:48:17;99171.41;;;17.81;49.27
67738;BME280;54534;43.612;1.572;2023-03-14T13:50:50;99191.72;;;17.82;49.15
67738;BME280;54534;43.612;1.572;2023-03-14T13:53:17;99190.03;;;17.81;49.25
67738;BME280;54534;43.612;1.572;2023-03-14T13:55:42;99181.09;;;17.82;49.12
67738;BME280;54534;43.612;1.572;2023-03-14T13:58:40;99197.91;;;17.83;48.80
67738;BME280;54534;43.612;1.572;2023-03-14T14:01:18;99191.72;;;17.82;48.90
67738;BME280;54534;43.612;1.572;2023-03-14T14:03:49;99190.88;;;17.82;49.23
67738;BME280;54534;43.612;1.572;2023-03-14T14:08:58;99176.72;;;17.81;49.36
67738;BME280;54534;43.612;1.572;2023-03-14T14:11:37;99184.72;;;17.81;48.72
67738;BME280;54534;43.612;1.572;2023-03-14T14:14:10;99189.22;;;17.81;48.93
67738;BME280;54534;43.612;1.572;2023-03-14T14:16:37;99195.34;;;17.81;49.00
67738;BME280;54534;43.612;1.572;2023-03-14T14:19:03;99188.34;;;17.80;49.29
67738;BME280;54534;43.612;1.572;2023-03-14T14:21:28;99190.03;;;17.81;49.31
67738;BME280;54534;43.612;1.572;2023-03-14T14:23:55;99181.22;;;17.81;49.15
67738;BME280;54534;43.612;1.572;2023-03-14T14:26:20;99181.22;;;17.81;48.89